Impacts METAR Board
IDs:

KCSM - Clinton/Sherman Arpt, OK, US

Updated at: 2100 UTC 21 May 2022
Potential Impact None Slight Moderate High
Time 21/09Z 21/10Z 21/11Z 21/12Z 21/13Z 21/14Z 21/15Z 21/16Z 21/17Z 21/18Z 21/19Z 21/20Z 21/21Z
Temp59 59 58 57 57 57 59 61 63 65 68 69 69
Dewpt36 33 33 34 36 35 35 37 39 41 42 40 40
Altim29.86 29.90 29.90 29.95 29.99 30.02 30.05 30.06 30.08 30.09 30.09 30.09 30.10
VIS10 10 10 10 10 10 10 10 10 10 10 10 10
CIG47 44 45 45 44 49 46 60 -- 60 -- -- --
CoverOVCOVCOVCOVCOVCOVCOVCBKNFEWOVCCLRCLRCLR
FltCatVFRVFRVFRVFRVFRVFRVFRVFRVFRVFRVFRVFRVFR
WX--------------------------
WDir20201010101010103030201030
WSpd22 20 21 26 24 24 23 26 24 24 22 14 22
WGst31 33 30 32 30 32 30 31 31 30 30 28 28
R17/35
XWnd 8 7 4 5 4 4 4 5 12 12 8 2 11
XGst 11 11 5 6 5 6 5 5 16 15 10 5 14
HWnd -21 -19 -21 -26 -24 -24 -23 -26 -21 -21 -21 -14 -19
HGst -29 -31 -30 -32 -30 -32 -30 -31 -27 -26 -28 -28 -24
Raw hourly METARs
KCSM 210853Z AUTO 02022G31KT 10SM OVC047 15/02 A2986 RMK AO2 PK WND 02035/0837 SLP091 T01500022 51016
KCSM 210953Z AUTO 02020G33KT 10SM OVC044 15/01 A2990 RMK AO2 PK WND 02036/0854 SLP107 T01500006
KCSM 211053Z AUTO 01021G30KT 10SM OVC045 14/01 A2990 RMK AO2 PK WND 02034/1039 SLP108 T01440006
KCSM 211153Z AUTO 01026G32KT 10SM OVC045 14/01 A2995 RMK AO2 PK WND 36033/1131 SLP123 T01390011 10189 20139 51029
KCSM 211253Z AUTO 01024G30KT 10SM OVC044 14/02 A2999 RMK AO2 PK WND 02033/1206 SLP138 T01390022
KCSM 211353Z AUTO 01024G32KT 10SM BKN049 OVC060 14/02 A3002 RMK AO2 PK WND 01032/1338 SLP151 T01390017
KCSM 211453Z AUTO 01023G30KT 10SM OVC046 15/02 A3005 RMK AO2 PK WND 36035/1413 SLP161 T01500017 51033
KCSM 211553Z AUTO 01026G31KT 10SM SCT050 BKN060 16/03 A3006 RMK AO2 PK WND 01035/1543 SLP164 T01610028
KCSM 211653Z AUTO 03024G31KT 10SM FEW050 17/04 A3008 RMK AO2 PK WND 02031/1615 SLP169 T01720039
KCSM 211753Z AUTO 03024G30KT 10SM OVC060 18/05 A3009 RMK AO2 PK WND 04031/1715 SLP175 T01830050 10189 20133 53015
KCSM 211853Z AUTO 02022G30KT 10SM CLR 20/06 A3009 RMK AO2 PK WND 01031/1805 SLP175 T02000056
KCSM 211953Z AUTO 01014G28KT 10SM CLR 21/04 A3009 RMK AO2 PK WND 01031/1937 SLP175 T02060044
KCSM 212053Z AUTO 03022G28KT 10SM CLR 21/04 A3010 RMK AO2 PK WND 01030/2009 SLP177 T02060044 53001



Page loaded:  21:00 UTC  |   02:00 PM Pacific  |   03:00 PM Mountain  |   04:00 PM Central  |   05:00 PM Eastern

 

ADVISORIES

FORECASTS

FORECASTS

OBSERVATIONS

USER TOOLS

ABOUT US